Time;durP1;ratioP1;P1;durP2;ratioP2;P2;SDS_P1;SDS_P2;PMS_P1;PMS_P2;Temp;Humidity;BMP_temperature;BMP_pressure;BME280_temperature;BME280_humidity;BME280_pressure;Samples;Min_cycle;Max_cycle;Signal;HPM_P1;HPM_P2
2023/04/13 00:00:43;;;;;;;9.52;4.50;;;8.80;99.90;;;;;;5074465;28;20082;-68
2023/04/13 00:03:15;;;;;;;9.90;3.75;;;8.80;99.90;;;;;;5073030;28;20041;-70
2023/04/13 00:05:41;;;;;;;10.48;3.92;;;8.80;99.90;;;;;;5073825;28;20052;-68
2023/04/13 00:08:07;;;;;;;8.18;3.80;;;8.80;99.90;;;;;;5074088;28;20052;-68
2023/04/13 00:10:35;;;;;;;12.60;4.07;;;8.80;99.90;;;;;;5073912;28;20668;-69
2023/04/13 00:13:04;;;;;;;10.00;3.28;;;8.80;99.90;;;;;;5074319;28;20028;-67
2023/04/13 00:15:31;;;;;;;6.47;2.83;;;8.80;99.90;;;;;;5073912;28;20124;-68
2023/04/13 00:17:57;;;;;;;9.63;3.22;;;8.80;99.90;;;;;;5073807;28;20498;-67
2023/04/13 00:20:22;;;;;;;8.65;3.38;;;8.80;99.90;;;;;;5073754;28;20119;-70
2023/04/13 00:22:48;;;;;;;8.35;3.10;;;8.50;99.90;;;;;;5072851;28;20109;-67
2023/04/13 00:25:15;;;;;;;11.70;4.35;;;8.30;99.90;;;;;;5073903;28;20358;-69
2023/04/13 00:27:42;;;;;;;9.88;4.88;;;8.20;99.90;;;;;;5074187;28;20459;-68
2023/04/13 00:30:11;;;;;;;16.88;4.82;;;8.30;99.90;;;;;;5072602;28;20044;-68
2023/04/13 00:32:39;;;;;;;18.58;5.78;;;8.30;99.90;;;;;;5073653;28;20054;-68
2023/04/13 00:35:06;;;;;;;13.05;5.55;;;8.30;99.90;;;;;;5073704;28;20158;-69
2023/04/13 00:37:31;;;;;;;16.05;6.03;;;8.30;99.90;;;;;;5072327;28;20048;-69
2023/04/13 00:39:58;;;;;;;13.13;5.50;;;8.20;99.90;;;;;;5073780;28;20067;-69
2023/04/13 00:42:24;;;;;;;11.15;6.10;;;8.20;99.90;;;;;;5072346;28;20021;-68
2023/04/13 00:44:57;;;;;;;15.30;6.90;;;8.20;99.90;;;;;;5073251;28;20032;-68
2023/04/13 00:47:29;;;;;;;15.05;6.93;;;8.20;99.90;;;;;;5072067;28;20423;-68
2023/04/13 00:49:55;;;;;;;15.70;7.78;;;8.30;99.90;;;;;;5073111;28;20029;-69
2023/04/13 00:52:22;;;;;;;21.10;6.65;;;8.30;99.90;;;;;;5072071;28;20052;-68
2023/04/13 00:54:50;;;;;;;13.88;7.20;;;8.30;99.90;;;;;;5073512;28;20021;-68
2023/04/13 00:57:17;;;;;;;16.50;7.47;;;8.20;99.90;;;;;;5073381;28;20043;-68
2023/04/13 00:59:44;;;;;;;13.47;6.83;;;8.20;99.90;;;;;;5073147;28;20119;-68
2023/04/13 01:02:09;;;;;;;21.63;7.38;;;8.20;99.90;;;;;;5072830;28;20044;-69
2023/04/13 01:04:36;;;;;;;18.45;7.55;;;8.20;99.90;;;;;;5072779;28;20059;-69
2023/04/13 01:07:41;;;;;;;15.10;8.00;;;8.20;99.90;;;;;;5073800;28;20432;-69
2023/04/13 01:10:10;;;;;;;17.45;7.25;;;8.30;99.90;;;;;;5072777;28;20466;-69
2023/04/13 01:13:04;;;;;;;14.07;6.68;;;8.20;99.90;;;;;;5073386;28;20400;-69
2023/04/13 01:15:36;;;;;;;14.15;6.75;;;8.20;99.90;;;;;;5072833;28;20059;-69
2023/04/13 01:18:07;;;;;;;17.80;7.13;;;8.30;99.90;;;;;;5072582;28;20128;-68
2023/04/13 01:20:36;;;;;;;17.05;7.60;;;8.20;99.90;;;;;;5072425;28;20044;-69
2023/04/13 01:23:11;;;;;;;16.48;8.15;;;8.20;99.90;;;;;;5072497;28;20029;-68
2023/04/13 01:25:49;;;;;;;14.93;7.10;;;8.10;99.90;;;;;;5072894;28;20032;-68
2023/04/13 01:28:16;;;;;;;10.82;6.10;;;8.10;99.90;;;;;;5072495;28;20028;-68
2023/04/13 01:30:44;;;;;;;17.43;7.17;;;8.10;99.90;;;;;;5072721;28;20048;-68
2023/04/13 01:33:10;;;;;;;15.32;6.35;;;8.20;99.90;;;;;;5072734;28;20044;-70
2023/04/13 01:35:37;;;;;;;14.07;6.40;;;8.00;99.90;;;;;;5079005;28;20035;-69
2023/04/13 01:38:04;;;;;;;20.40;7.00;;;8.00;99.90;;;;;;5091360;28;20032;-68
2023/04/13 01:40:31;;;;;;;15.02;6.75;;;8.10;99.90;;;;;;5091379;28;20123;-68
2023/04/13 01:42:57;;;;;;;17.70;6.53;;;8.00;99.90;;;;;;5091792;28;20020;-69
2023/04/13 01:45:55;;;;;;;18.55;6.18;;;8.00;99.90;;;;;;5092396;28;20420;-68
2023/04/13 01:48:27;;;;;;;16.08;6.40;;;7.90;99.90;;;;;;5091921;28;20378;-69
2023/04/13 01:51:00;;;;;;;14.55;6.25;;;7.90;99.90;;;;;;5092123;28;20032;-69
2023/04/13 01:53:34;;;;;;;16.48;6.35;;;7.90;99.90;;;;;;5092230;28;20032;-69
2023/04/13 01:56:03;;;;;;;14.65;6.15;;;8.00;99.90;;;;;;5092234;28;20038;-69
2023/04/13 01:58:32;;;;;;;15.68;6.50;;;8.00;99.90;;;;;;5092257;28;20035;-69
2023/04/13 02:00:58;;;;;;;12.18;6.65;;;7.90;99.90;;;;;;5092398;28;20032;-69
2023/04/13 02:03:24;;;;;;;13.25;6.55;;;8.00;99.90;;;;;;5091969;28;20546;-68
2023/04/13 02:05:50;;;;;;;12.80;5.88;;;8.00;99.90;;;;;;5091970;28;20036;-68
2023/04/13 02:08:19;;;;;;;14.50;6.63;;;7.80;99.90;;;;;;5092130;28;20024;-69
2023/04/13 02:10:45;;;;;;;13.40;5.80;;;7.80;99.90;;;;;;5091927;28;20093;-69
2023/04/13 02:13:11;;;;;;;11.85;6.60;;;7.90;99.90;;;;;;5091716;28;20032;-69
2023/04/13 02:15:38;;;;;;;15.13;5.82;;;7.90;99.90;;;;;;5092233;28;20465;-70
2023/04/13 02:18:04;;;;;;;13.52;6.30;;;7.90;99.90;;;;;;5091771;28;20048;-69
2023/04/13 02:20:39;;;;;;;11.25;5.82;;;7.90;99.90;;;;;;5091474;28;20038;-69
2023/04/13 02:23:07;;;;;;;12.73;6.68;;;7.90;99.90;;;;;;5091179;28;20036;-70
2023/04/13 02:25:32;;;;;;;11.82;6.10;;;7.90;99.90;;;;;;5090460;28;20088;-70
2023/04/13 02:27:58;;;;;;;12.82;5.45;;;7.90;99.90;;;;;;5091955;28;20028;-70
2023/04/13 02:30:25;;;;;;;11.20;5.82;;;7.90;99.90;;;;;;5091618;28;20047;-70
2023/04/13 02:32:52;;;;;;;12.60;5.72;;;8.00;99.90;;;;;;5091511;28;20056;-70
2023/04/13 02:35:19;;;;;;;12.70;6.27;;;8.00;99.90;;;;;;5090478;28;20024;-69
2023/04/13 02:37:45;;;;;;;11.65;5.57;;;8.00;99.90;;;;;;5091546;28;20407;-69
2023/04/13 02:40:11;;;;;;;12.40;5.38;;;8.00;99.90;;;;;;5091240;28;20020;-69
2023/04/13 02:42:38;;;;;;;11.32;5.85;;;7.90;99.90;;;;;;5091703;28;20031;-69
2023/04/13 02:45:06;;;;;;;9.80;5.20;;;8.00;99.90;;;;;;5091192;28;20462;-68
2023/04/13 02:47:33;;;;;;;11.73;4.95;;;8.00;99.90;;;;;;5090007;28;20040;-68
2023/04/13 02:50:00;;;;;;;7.68;4.60;;;8.00;99.90;;;;;;5091184;28;20197;-69
2023/04/13 02:52:26;;;;;;;9.77;4.97;;;8.00;99.90;;;;;;5091301;28;20107;-69
2023/04/13 02:54:53;;;;;;;12.18;5.10;;;8.00;99.90;;;;;;5091547;28;20154;-67
2023/04/13 02:57:21;;;;;;;9.55;5.60;;;8.10;99.90;;;;;;5090075;28;20024;-69
2023/04/13 02:59:47;;;;;;;11.60;5.53;;;8.00;99.90;;;;;;5091069;28;20028;-68
2023/04/13 03:02:13;;;;;;;12.50;5.55;;;8.00;99.90;;;;;;5089787;28;20633;-70
2023/04/13 03:04:39;;;;;;;10.27;6.18;;;7.90;99.90;;;;;;5091137;28;20085;-69
2023/04/13 03:07:08;;;;;;;15.02;5.43;;;7.90;99.90;;;;;;5091163;28;20103;-69
2023/04/13 03:09:38;;;;;;;14.60;5.95;;;7.90;99.90;;;;;;5091409;28;20024;-69
2023/04/13 03:12:06;;;;;;;9.43;5.47;;;7.90;99.90;;;;;;5089808;28;20480;-69
2023/04/13 03:14:32;;;;;;;9.02;5.32;;;7.90;99.90;;;;;;5091076;28;20044;-70
2023/04/13 03:16:58;;;;;;;10.80;5.47;;;7.80;99.90;;;;;;5090676;28;20465;-69
2023/04/13 03:19:25;;;;;;;8.05;4.50;;;7.80;99.90;;;;;;5090841;28;20043;-70
2023/04/13 03:21:51;;;;;;;13.25;5.22;;;7.90;99.90;;;;;;5091096;28;20105;-69
2023/04/13 03:24:17;;;;;;;9.20;4.25;;;7.90;99.90;;;;;;5090557;28;20039;-68
2023/04/13 03:26:42;;;;;;;12.35;4.25;;;7.90;99.90;;;;;;5090715;28;20369;-69
2023/04/13 03:29:08;;;;;;;13.50;5.03;;;7.90;99.90;;;;;;5090767;28;20424;-68
2023/04/13 03:31:34;;;;;;;9.35;4.88;;;7.90;99.90;;;;;;5089322;28;20129;-68
2023/04/13 03:33:59;;;;;;;9.45;5.32;;;8.00;99.90;;;;;;5093320;28;20149;-69
2023/04/13 03:36:28;;;;;;;7.80;4.55;;;7.90;99.90;;;;;;5094808;28;20028;-69
2023/04/13 03:38:55;;;;;;;9.38;4.90;;;7.80;99.90;;;;;;5094644;28;20030;-69
2023/04/13 03:41:22;;;;;;;7.53;4.10;;;7.80;99.90;;;;;;5094663;28;20042;-69
2023/04/13 03:43:48;;;;;;;8.73;4.13;;;7.80;99.90;;;;;;5093392;28;20032;-69
2023/04/13 03:46:14;;;;;;;8.35;3.42;;;7.90;99.90;;;;;;5094484;28;20357;-69
2023/04/13 03:48:40;;;;;;;11.63;3.58;;;7.90;99.90;;;;;;5095220;28;20024;-69
2023/04/13 03:51:06;;;;;;;4.90;3.15;;;7.90;99.90;;;;;;5094619;28;20067;-70
2023/04/13 03:53:35;;;;;;;7.82;3.40;;;7.90;99.90;;;;;;5094357;28;20028;-70
2023/04/13 03:56:01;;;;;;;6.15;2.95;;;7.90;99.90;;;;;;5094324;28;20040;-70
2023/04/13 03:58:27;;;;;;;9.95;3.85;;;7.90;99.90;;;;;;5093332;28;20460;-70
2023/04/13 04:00:52;;;;;;;5.85;3.17;;;7.80;99.90;;;;;;5094615;28;20027;-70
2023/04/13 04:03:20;;;;;;;6.65;2.85;;;7.80;99.90;;;;;;5094396;28;20032;-70
2023/04/13 04:05:46;;;;;;;;;;;7.80;99.90;;;;;;5094731;28;20100;-69
2023/04/13 04:08:12;;;;;;;5.45;2.67;;;7.80;99.90;;;;;;5094167;28;19908;-69
2023/04/13 04:10:37;;;;;;;6.25;2.45;;;7.80;99.90;;;;;;5094235;28;20037;-69
2023/04/13 04:13:03;;;;;;;4.25;2.60;;;7.80;99.90;;;;;;5094336;28;20249;-69
2023/04/13 04:15:29;;;;;;;5.65;2.65;;;7.80;99.90;;;;;;5094592;28;20024;-69
2023/04/13 04:17:55;;;;;;;6.25;2.38;;;7.80;99.90;;;;;;5092970;28;20070;-70
2023/04/13 04:20:21;;;;;;;7.10;2.42;;;7.90;99.90;;;;;;5093958;28;20059;-68
2023/04/13 04:22:48;;;;;;;4.97;2.25;;;7.90;99.90;;;;;;5094087;28;20029;-69
2023/04/13 04:25:20;;;;;;;4.53;2.03;;;7.90;99.90;;;;;;5094410;28;20095;-69
2023/04/13 04:27:48;;;;;;;6.82;2.15;;;7.90;99.90;;;;;;5094604;28;20023;-69
2023/04/13 04:30:14;;;;;;;5.32;1.77;;;7.90;99.90;;;;;;5092761;28;20032;-68
2023/04/13 04:32:40;;;;;;;5.00;2.22;;;7.90;99.90;;;;;;5093632;28;20405;-70
2023/04/13 04:35:07;;;;;;;4.35;2.08;;;7.90;99.90;;;;;;5093898;28;20117;-69
2023/04/13 04:37:36;;;;;;;2.25;1.52;;;7.90;99.90;;;;;;5092560;28;20031;-69
2023/04/13 04:40:08;;;;;;;6.75;1.65;;;7.90;99.90;;;;;;5093937;28;20407;-69
2023/04/13 04:42:38;;;;;;;6.22;1.80;;;8.00;99.90;;;;;;5094021;28;20032;-70
2023/04/13 04:45:05;;;;;;;3.28;1.58;;;8.00;99.90;;;;;;5092944;28;20103;-69
2023/04/13 04:47:31;;;;;;;1.80;1.40;;;8.10;99.90;;;;;;5093546;28;20128;-69
2023/04/13 04:49:57;;;;;;;5.70;1.70;;;8.10;99.90;;;;;;5092579;28;20459;-69
2023/04/13 04:52:24;;;;;;;2.83;1.67;;;8.10;99.90;;;;;;5093265;28;20036;-69
2023/04/13 04:54:51;;;;;;;3.38;1.25;;;8.10;99.90;;;;;;5093738;28;20047;-69
2023/04/13 04:57:17;;;;;;;5.60;1.20;;;8.20;99.90;;;;;;5093568;28;20105;-69
2023/04/13 04:59:43;;;;;;;2.80;1.20;;;8.20;99.90;;;;;;5093196;28;20099;-69
2023/04/13 05:02:09;;;;;;;6.07;1.10;;;8.30;99.90;;;;;;5093183;28;20059;-69
2023/04/13 05:04:36;;;;;;;2.80;0.90;;;8.30;99.90;;;;;;5092163;28;20147;-69
2023/04/13 05:07:01;;;;;;;5.13;1.38;;;8.30;99.90;;;;;;5092583;28;20062;-69
2023/04/13 05:09:27;;;;;;;2.10;0.90;;;8.30;99.90;;;;;;5093182;28;20036;-68
2023/04/13 05:11:53;;;;;;;5.00;1.05;;;8.40;99.90;;;;;;5093059;28;20040;-68
2023/04/13 05:14:19;;;;;;;4.30;1.17;;;8.30;99.90;;;;;;5093134;28;20582;-68
2023/04/13 05:16:45;;;;;;;3.88;0.90;;;8.30;99.90;;;;;;5092989;28;20039;-69
2023/04/13 05:19:11;;;;;;;4.85;1.00;;;8.40;99.90;;;;;;5093145;28;20089;-69
2023/04/13 05:21:37;;;;;;;1.27;0.73;;;8.40;99.90;;;;;;5093354;28;20054;-69
2023/04/13 05:24:03;;;;;;;2.55;0.80;;;8.40;99.90;;;;;;5093117;28;20029;-68
2023/04/13 05:26:33;;;;;;;2.47;1.23;;;8.40;99.90;;;;;;5091608;28;20312;-68
2023/04/13 05:28:58;;;;;;;1.80;0.68;;;8.50;99.90;;;;;;5092808;28;20028;-69
2023/04/13 05:31:24;;;;;;;2.40;0.95;;;8.60;99.90;;;;;;5092252;28;20487;-69
2023/04/13 05:33:50;;;;;;;3.40;0.90;;;8.60;99.90;;;;;;5093398;28;20200;-69
2023/04/13 05:36:16;;;;;;;5.80;0.80;;;8.60;99.90;;;;;;5092673;28;20028;-69
2023/04/13 05:38:42;;;;;;;3.53;0.85;;;8.80;99.90;;;;;;5092527;28;20465;-69
2023/04/13 05:41:09;;;;;;;3.60;0.60;;;8.80;99.90;;;;;;5091404;28;20043;-68
2023/04/13 05:43:35;;;;;;;3.75;0.68;;;8.90;99.90;;;;;;5091763;28;20043;-68
2023/04/13 05:46:01;;;;;;;3.35;0.98;;;8.90;99.80;;;;;;5092829;28;20156;-69
2023/04/13 05:48:30;;;;;;;1.88;0.70;;;8.90;99.60;;;;;;5092401;28;20059;-68
2023/04/13 05:50:57;;;;;;;4.13;0.70;;;9.00;99.50;;;;;;5091047;28;20024;-68
2023/04/13 05:53:23;;;;;;;3.70;0.70;;;8.90;99.40;;;;;;5092162;28;20039;-69
2023/04/13 05:55:48;;;;;;;1.60;0.52;;;9.00;99.30;;;;;;5090876;28;20032;-68
2023/04/13 05:58:14;;;;;;;3.55;0.80;;;9.00;99.30;;;;;;5091806;28;20028;-69
2023/04/13 06:00:40;;;;;;;3.50;0.65;;;9.00;99.30;;;;;;5092561;28;20465;-69
2023/04/13 06:03:06;;;;;;;3.03;0.52;;;9.10;99.20;;;;;;5092449;28;20039;-68
2023/04/13 06:05:34;;;;;;;1.10;0.60;;;9.20;99.20;;;;;;5092034;28;20097;-67
2023/04/13 06:07:59;;;;;;;3.70;0.80;;;9.30;99.20;;;;;;5092012;28;20065;-67
2023/04/13 06:10:25;;;;;;;1.15;0.52;;;9.40;99.30;;;;;;5091090;28;20058;-68
2023/04/13 06:12:52;;;;;;;4.43;0.90;;;9.70;99.10;;;;;;5092553;28;20035;-67
2023/04/13 06:15:19;;;;;;;3.65;0.80;;;9.60;98.60;;;;;;5091601;28;20024;-67
2023/04/13 06:17:45;;;;;;;2.92;0.55;;;9.70;98.50;;;;;;5091480;28;20349;-67
2023/04/13 06:20:11;;;;;;;1.85;0.80;;;9.90;98.40;;;;;;5091586;28;20042;-68
2023/04/13 06:22:37;;;;;;;4.82;0.90;;;9.90;98.40;;;;;;5091764;28;20115;-67
2023/04/13 06:25:02;;;;;;;5.47;1.08;;;9.90;98.30;;;;;;5090944;28;20162;-69
2023/04/13 06:27:28;;;;;;;2.33;0.65;;;10.00;97.50;;;;;;5091871;28;20108;-70
2023/04/13 06:29:56;;;;;;;2.60;1.10;;;10.10;97.50;;;;;;5091641;28;20028;-68
2023/04/13 06:32:22;;;;;;;1.75;0.60;;;10.10;97.20;;;;;;5091500;28;20052;-71
2023/04/13 06:34:48;;;;;;;3.55;0.77;;;10.10;97.10;;;;;;5091674;28;20496;-71
2023/04/13 06:37:15;;;;;;;2.00;0.70;;;10.20;97.00;;;;;;5091755;28;20423;-71
2023/04/13 06:39:41;;;;;;;0.63;0.50;;;10.20;97.00;;;;;;5092602;28;20273;-71
2023/04/13 06:42:07;;;;;;;2.22;0.65;;;10.40;97.00;;;;;;5091650;28;20343;-70
2023/04/13 06:44:32;;;;;;;3.80;0.80;;;10.50;96.60;;;;;;5091401;28;20034;-68
2023/04/13 06:46:58;;;;;;;3.95;0.63;;;10.70;96.70;;;;;;5091698;28;20127;-69
2023/04/13 06:49:23;;;;;;;5.10;0.52;;;10.70;96.60;;;;;;5091223;28;20024;-69
2023/04/13 06:51:49;;;;;;;1.83;0.50;;;10.70;96.20;;;;;;5092258;28;20028;-70
2023/04/13 06:54:15;;;;;;;3.05;0.50;;;10.70;96.00;;;;;;5091061;28;20443;-70
2023/04/13 06:56:40;;;;;;;3.55;0.75;;;10.70;95.70;;;;;;5089874;28;20035;-71
2023/04/13 06:59:06;;;;;;;2.20;0.82;;;10.70;95.70;;;;;;5091362;28;20028;-69
2023/04/13 07:01:32;;;;;;;3.08;0.70;;;10.70;95.70;;;;;;5091221;28;20036;-68
2023/04/13 07:03:57;;;;;;;2.38;0.77;;;10.80;95.80;;;;;;5090355;28;20028;-69
2023/04/13 07:06:23;;;;;;;3.42;1.10;;;10.80;95.90;;;;;;5090883;28;20024;-70
2023/04/13 07:08:49;;;;;;;3.80;1.00;;;10.90;95.70;;;;;;5091156;28;20123;-71
2023/04/13 07:11:15;;;;;;;6.68;0.52;;;11.00;95.60;;;;;;5089614;28;20108;-69
2023/04/13 07:13:41;;;;;;;2.70;0.47;;;11.00;95.50;;;;;;5090828;28;20024;-67
2023/04/13 07:16:13;;;;;;;1.30;0.45;;;11.20;95.60;;;;;;5090794;28;20027;-68
2023/04/13 07:18:39;;;;;;;1.25;0.50;;;11.20;95.10;;;;;;5089907;28;20289;-70
2023/04/13 07:21:06;;;;;;;3.25;0.60;;;11.20;95.10;;;;;;5091018;28;20503;-70
2023/04/13 07:23:32;;;;;;;6.18;0.95;;;11.10;94.90;;;;;;5090606;28;20032;-71
2023/04/13 07:25:58;;;;;;;1.23;0.35;;;11.20;94.80;;;;;;5089301;28;20284;-71
2023/04/13 07:28:24;;;;;;;2.00;0.70;;;11.20;94.70;;;;;;5078343;28;20033;-72
2023/04/13 07:30:50;;;;;;;0.73;0.45;;;11.20;94.70;;;;;;5070787;28;20044;-71
2023/04/13 07:33:15;;;;;;;1.42;0.50;;;11.10;94.60;;;;;;5070260;28;20340;-70
2023/04/13 07:35:41;;;;;;;1.80;0.77;;;11.10;94.80;;;;;;5070341;28;20517;-70
2023/04/13 07:38:07;;;;;;;1.65;0.20;;;11.00;94.90;;;;;;5071358;28;20032;-70
2023/04/13 07:40:34;;;;;;;1.50;0.40;;;11.10;95.00;;;;;;5070189;28;20173;-71
2023/04/13 07:43:00;;;;;;;6.70;2.15;;;11.00;94.90;;;;;;5071926;28;20024;-69
2023/04/13 07:45:29;;;;;;;3.08;0.98;;;11.00;95.00;;;;;;5070875;28;20150;-70
2023/04/13 07:47:56;;;;;;;3.17;0.70;;;11.00;95.00;;;;;;5070365;28;20113;-70
2023/04/13 07:50:22;;;;;;;1.73;0.73;;;10.90;95.00;;;;;;5070064;28;20037;-70
2023/04/13 07:52:47;;;;;;;3.75;0.90;;;10.90;95.00;;;;;;5070326;28;20029;-71
2023/04/13 07:55:13;;;;;;;2.35;0.52;;;10.80;94.90;;;;;;5069298;28;20398;-72
2023/04/13 07:57:39;;;;;;;0.45;0.30;;;10.70;95.00;;;;;;5070826;28;20539;-71
2023/04/13 08:00:05;;;;;;;5.20;0.50;;;10.70;94.90;;;;;;5069293;28;20056;-71
2023/04/13 08:02:32;;;;;;;2.30;0.50;;;10.70;95.00;;;;;;5070334;28;20052;-70
2023/04/13 08:04:58;;;;;;;5.50;0.32;;;10.60;95.00;;;;;;5070285;28;20028;-70
2023/04/13 08:07:24;;;;;;;2.08;0.50;;;10.70;95.10;;;;;;5069163;28;20032;-70
2023/04/13 08:09:51;;;;;;;2.75;0.70;;;10.70;95.00;;;;;;5070506;28;20036;-69
2023/04/13 08:12:18;;;;;;;2.15;0.70;;;10.70;95.10;;;;;;5070128;28;20094;-70
2023/04/13 08:14:44;;;;;;;2.45;0.40;;;10.70;95.10;;;;;;5070054;28;20047;-69
2023/04/13 08:17:10;;;;;;;2.03;0.45;;;10.70;95.00;;;;;;5070326;28;20467;-68
2023/04/13 08:19:36;;;;;;;4.25;0.50;;;10.70;95.00;;;;;;5073076;28;20123;-68
2023/04/13 08:22:03;;;;;;;3.55;0.60;;;10.80;95.10;;;;;;5074392;28;20112;-68
2023/04/13 08:24:29;;;;;;;4.82;1.20;;;10.80;95.00;;;;;;5072487;28;20519;-68
2023/04/13 08:26:57;;;;;;;5.80;0.90;;;10.70;95.10;;;;;;5073566;28;20088;-71
2023/04/13 08:29:23;;;;;;;2.65;0.55;;;10.80;95.20;;;;;;5073671;28;20033;-68
2023/04/13 08:31:49;;;;;;;2.33;0.80;;;10.70;95.20;;;;;;5073576;28;20040;-70
2023/04/13 08:34:16;;;;;;;5.63;1.63;;;10.80;95.30;;;;;;5073629;28;20031;-68
2023/04/13 08:36:44;;;;;;;1.55;0.60;;;10.70;95.10;;;;;;5073967;28;20025;-67
2023/04/13 08:39:10;;;;;;;2.20;0.60;;;10.90;95.20;;;;;;5072438;28;20060;-69
2023/04/13 08:41:37;;;;;;;2.72;0.77;;;11.00;95.10;;;;;;5072422;28;20036;-68
2023/04/13 08:44:05;;;;;;;8.73;0.80;;;10.80;94.90;;;;;;5073539;28;20028;-68
2023/04/13 08:46:32;;;;;;;3.08;0.80;;;11.00;95.00;;;;;;5073463;28;20044;-71
2023/04/13 08:49:00;;;;;;;4.27;1.27;;;11.40;94.90;;;;;;5074026;28;20020;-67
2023/04/13 08:51:28;;;;;;;0.88;0.52;;;12.20;93.90;;;;;;5073824;28;20253;-68
2023/04/13 08:53:57;;;;;;;1.92;0.60;;;12.70;93.60;;;;;;5072341;28;20052;-71
2023/04/13 08:56:24;;;;;;;1.25;0.45;;;13.70;92.50;;;;;;5072008;28;20044;-68
2023/04/13 08:58:55;;;;;;;3.10;0.60;;;13.70;92.10;;;;;;5072075;28;20036;-70
2023/04/13 09:01:23;;;;;;;4.15;1.52;;;13.50;91.60;;;;;;5072955;28;20035;-71
2023/04/13 09:04:07;;;;;;;2.42;0.50;;;13.30;92.00;;;;;;5073615;28;20025;-70
2023/04/13 09:06:36;;;;;;;3.47;0.50;;;14.10;91.60;;;;;;5073445;28;20028;-70
2023/04/13 09:09:08;;;;;;;6.00;1.10;;;15.00;90.70;;;;;;5073169;28;20363;-69
2023/04/13 09:11:34;;;;;;;4.50;1.00;;;15.80;90.10;;;;;;5072956;28;20494;-69
2023/04/13 09:14:00;;;;;;;3.25;0.85;;;15.80;88.20;;;;;;5072970;28;20047;-69
2023/04/13 09:16:26;;;;;;;1.23;0.65;;;16.40;88.50;;;;;;5071806;28;20034;-70
2023/04/13 09:18:56;;;;;;;6.32;0.88;;;17.20;87.20;;;;;;5072188;28;20111;-69
2023/04/13 09:21:34;;;;;;;3.92;1.15;;;18.40;85.00;;;;;;5072983;28;20037;-70
2023/04/13 09:24:00;;;;;;;;;;;19.50;81.90;;;;;;5073521;28;20043;-69
2023/04/13 09:26:25;;;;;;;3.78;1.00;;;20.10;79.60;;;;;;5073709;28;19908;-69
2023/04/13 09:28:54;;;;;;;2.55;0.50;;;20.50;78.30;;;;;;5073000;28;20481;-70
2023/04/13 09:31:20;;;;;;;0.77;0.45;;;20.50;75.80;;;;;;5072077;28;20533;-69
2023/04/13 09:33:52;;;;;;;3.45;1.08;;;19.40;75.00;;;;;;5073036;28;20071;-70
2023/04/13 09:36:20;;;;;;;1.52;0.73;;;19.70;74.60;;;;;;5072499;28;20104;-70
2023/04/13 09:38:54;;;;;;;;;;;19.70;74.30;;;;;;5072836;28;20059;-70
2023/04/13 09:41:49;;;;;;;1.48;0.80;;;19.20;74.60;;;;;;5072289;28;19916;-69
2023/04/13 09:44:19;;;;;;;1.50;0.57;;;18.60;76.70;;;;;;5071108;28;20086;-70
2023/04/13 09:46:56;;;;;;;1.02;0.57;;;19.30;75.90;;;;;;5072701;28;20036;-70
2023/04/13 09:49:22;;;;;;;1.70;0.35;;;19.90;72.60;;;;;;5072948;28;20055;-69
2023/04/13 09:51:47;;;;;;;2.60;0.70;;;20.10;72.40;;;;;;5072600;28;20052;-68
2023/04/13 09:54:20;;;;;;;1.92;0.70;;;20.90;72.40;;;;;;5072398;28;20047;-68
2023/04/13 09:56:50;;;;;;;2.03;0.70;;;21.10;70.90;;;;;;5072407;28;20472;-70
2023/04/13 09:59:17;;;;;;;1.40;0.57;;;20.60;70.40;;;;;;5072396;28;20052;-71
2023/04/13 10:01:44;;;;;;;2.30;0.60;;;20.80;69.40;;;;;;5071220;28;20048;-70
2023/04/13 10:04:09;;;;;;;1.65;0.60;;;20.50;70.60;;;;;;5072107;28;20093;-70
2023/04/13 10:06:39;;;;;;;4.10;0.85;;;21.00;69.50;;;;;;5074454;28;20028;-69
2023/04/13 10:09:06;;;;;;;4.40;0.90;;;20.80;68.30;;;;;;5071747;28;20040;-69
2023/04/13 10:11:48;;;;;;;1.70;0.80;;;20.40;67.00;;;;;;5071776;28;20082;-71
2023/04/13 10:14:20;;;;;;;1.30;0.77;;;20.10;67.00;;;;;;5071657;28;20029;-69
2023/04/13 10:17:15;;;;;;;3.25;0.90;;;20.50;67.30;;;;;;5071776;28;20032;-69
2023/04/13 10:19:48;;;;;;;1.60;0.75;;;21.80;66.10;;;;;;5072026;28;20136;-72
2023/04/13 10:22:15;;;;;;;1.70;0.90;;;21.70;65.10;;;;;;5070301;28;20112;-70
2023/04/13 10:24:41;;;;;;;2.13;0.70;;;21.90;63.40;;;;;;5070759;28;20111;-71
2023/04/13 10:27:26;;;;;;;6.93;1.83;;;22.70;62.30;;;;;;5071694;28;20530;-70
2023/04/13 10:29:52;;;;;;;4.20;1.80;;;23.00;60.50;;;;;;5071654;28;20059;-70
2023/04/13 10:32:25;;;;;;;2.40;0.60;;;23.20;60.30;;;;;;5071215;28;20095;-70
2023/04/13 10:34:51;;;;;;;2.40;0.75;;;23.40;58.80;;;;;;5071228;28;20043;-69
2023/04/13 10:37:18;;;;;;;4.88;2.80;;;22.90;57.80;;;;;;5070040;28;20023;-70
2023/04/13 10:39:45;;;;;;;3.78;2.13;;;22.70;58.20;;;;;;5071562;28;20103;-70
2023/04/13 10:42:12;;;;;;;5.13;1.00;;;22.70;57.70;;;;;;5070583;28;20032;-70
2023/04/13 10:44:45;;;;;;;3.10;1.10;;;23.50;57.10;;;;;;5071040;28;20025;-70
2023/04/13 10:47:16;;;;;;;3.53;0.65;;;23.20;56.10;;;;;;5070784;28;20301;-70
2023/04/13 10:49:43;;;;;;;3.58;1.20;;;22.60;56.70;;;;;;5075289;28;20033;-69
2023/04/13 10:52:10;;;;;;;3.00;0.93;;;22.40;57.40;;;;;;5070812;28;20024;-69
2023/04/13 10:54:37;;;;;;;1.55;0.80;;;22.30;56.60;;;;;;5070509;28;20024;-70
2023/04/13 10:57:05;;;;;;;1.08;0.70;;;22.60;57.30;;;;;;5071094;28;20032;-71
2023/04/13 10:59:55;;;;;;;;;;;22.10;56.50;;;;;;5070265;28;20032;-71
2023/04/13 11:02:23;;;;;;;4.43;2.47;;;21.30;57.30;;;;;;5070856;28;19912;-69
2023/04/13 11:04:49;;;;;;;0.93;0.70;;;20.40;57.90;;;;;;5070928;28;20036;-70
2023/04/13 11:07:17;;;;;;;1.20;0.70;;;19.70;58.40;;;;;;5070771;28;20032;-70
2023/04/13 11:09:44;;;;;;;1.17;0.70;;;19.40;59.20;;;;;;5071415;28;20185;-71
2023/04/13 11:12:13;;;;;;;1.60;1.10;;;19.10;59.50;;;;;;5071048;28;20371;-72
2023/04/13 11:14:43;;;;;;;4.88;2.03;;;18.60;59.50;;;;;;5069647;28;20043;-71
2023/04/13 11:17:14;;;;;;;1.38;0.95;;;18.10;60.10;;;;;;5069783;28;20283;-69
2023/04/13 11:19:50;;;;;;;1.73;0.85;;;17.90;61.50;;;;;;5070764;28;20028;-72
2023/04/13 11:22:22;;;;;;;1.20;0.40;;;17.90;61.70;;;;;;5069681;28;20078;-70
2023/04/13 11:24:49;;;;;;;3.67;0.50;;;17.80;60.80;;;;;;5070943;28;20020;-70
2023/04/13 11:27:22;;;;;;;2.05;1.02;;;17.20;60.90;;;;;;5069415;28;20059;-70
2023/04/13 11:30:05;;;;;;;2.60;1.00;;;17.20;61.80;;;;;;5071362;28;20028;-70
2023/04/13 11:32:32;;;;;;;1.40;0.60;;;17.10;61.60;;;;;;5069555;28;20056;-68
2023/04/13 11:35:16;;;;;;;0.83;0.50;;;16.70;62.60;;;;;;5069844;28;20132;-69
2023/04/13 11:37:52;;;;;;;0.80;0.45;;;16.80;63.30;;;;;;5071199;28;20472;-68
2023/04/13 11:40:26;;;;;;;0.93;0.40;;;16.60;62.40;;;;;;5069612;28;20039;-70
2023/04/13 11:42:53;;;;;;;1.10;0.40;;;16.70;61.90;;;;;;5071384;28;20021;-68
2023/04/13 11:45:21;;;;;;;1.77;0.87;;;16.40;61.70;;;;;;5071118;28;20086;-68
2023/04/13 11:47:49;;;;;;;3.15;1.00;;;16.50;62.40;;;;;;5071152;28;20090;-70
2023/04/13 11:50:16;;;;;;;3.75;1.15;;;16.50;62.80;;;;;;5070950;28;20108;-70
2023/04/13 11:52:43;;;;;;;3.05;1.25;;;16.60;63.10;;;;;;5069500;28;20039;-70
2023/04/13 11:55:09;;;;;;;2.20;0.95;;;16.50;62.70;;;;;;5072325;28;20036;-70
2023/04/13 11:57:35;;;;;;;1.92;0.77;;;16.60;63.00;;;;;;5075239;28;20462;-70
2023/04/13 12:00:08;;;;;;;1.70;0.68;;;16.60;62.20;;;;;;5074912;28;20024;-71
2023/04/13 12:02:40;;;;;;;1.98;0.82;;;16.50;62.10;;;;;;5073726;28;20036;-71
2023/04/13 12:05:08;;;;;;;2.42;1.30;;;16.80;62.10;;;;;;5075743;28;20430;-70
2023/04/13 12:07:38;;;;;;;3.58;0.85;;;16.50;61.30;;;;;;5074193;28;20025;-71
2023/04/13 12:10:05;;;;;;;1.77;0.80;;;16.50;62.20;;;;;;5075026;28;20082;-71
2023/04/13 12:12:31;;;;;;;0.60;0.60;;;16.40;62.30;;;;;;5073732;28;20029;-70
2023/04/13 12:14:59;;;;;;;3.00;0.70;;;16.40;62.70;;;;;;5075124;28;20036;-70
2023/04/13 12:17:32;;;;;;;3.42;1.58;;;16.30;63.00;;;;;;5074798;28;20044;-70
2023/04/13 12:19:59;;;;;;;1.50;0.93;;;16.00;63.20;;;;;;5074156;28;20036;-70
2023/04/13 12:22:42;;;;;;;2.33;0.82;;;16.00;63.90;;;;;;5074737;28;20040;-70
2023/04/13 12:25:12;;;;;;;1.80;0.90;;;15.80;64.00;;;;;;5075158;28;20024;-70
2023/04/13 12:27:41;;;;;;;1.92;0.98;;;15.40;65.10;;;;;;5075226;28;20024;-71
2023/04/13 12:30:15;;;;;;;2.35;0.90;;;15.40;65.00;;;;;;5075014;28;20028;-71
2023/04/13 12:32:45;;;;;;;2.33;1.20;;;15.60;65.30;;;;;;5074481;28;20048;-70
2023/04/13 12:35:11;;;;;;;3.42;1.80;;;15.50;65.20;;;;;;5073995;28;20037;-70
2023/04/13 12:37:41;;;;;;;2.20;1.08;;;15.50;65.40;;;;;;5072576;28;20049;-70
2023/04/13 12:40:12;;;;;;;1.33;0.90;;;15.50;65.50;;;;;;5072973;28;20024;-69
2023/04/13 12:42:39;;;;;;;4.28;1.05;;;15.30;66.60;;;;;;5074390;28;20450;-70
2023/04/13 12:45:05;;;;;;;4.77;1.30;;;15.20;67.30;;;;;;5074238;28;20041;-70
2023/04/13 12:47:31;;;;;;;7.93;1.58;;;15.20;67.90;;;;;;5074172;28;20523;-72
2023/04/13 12:49:57;;;;;;;3.50;1.00;;;15.20;68.80;;;;;;5073586;28;20115;-69
2023/04/13 12:52:22;;;;;;;1.73;0.90;;;15.30;68.80;;;;;;5073616;28;20032;-70
2023/04/13 12:54:49;;;;;;;2.10;1.08;;;15.30;68.30;;;;;;5074144;28;20050;-70